CYOY

C J.H.L.(Joe) Lecomte) Heliport

Valcartier, Quebec, Canada
METAR CYOY 230500Z AUTO 00000KT 9SM M07/M08 A3015 RMK SLP219
Observed Flight Rules
Oct-23 @ 05:00 UTC (37 minutes ago)
Visibility
9 miles
Temperatures Readings
Current -7°C / 19°F
Dewpoint -8°C / 18°F
Humidity 93%
Altimeter 30.15" Hg
Pressure 1021.9 hPa
Elevation 168
METAR CYOY 230500Z AUTO 00000KT 9SM M07/M08 A3015 RMK SLP219
Observed Flight Rules
Oct-23 @ 05:00 UTC
(37 minutes ago)
Temperature Dewpoint
-7°C / 19°F -8°C / 18°F
Humidity Altimeter Pressure
93% 30.15" Hg 1021.9 hPa